Time;durP1;ratioP1;P1;durP2;ratioP2;P2;SDS_P1;SDS_P2;PMS_P1;PMS_P2;Temp;Humidity;BMP_temperature;BMP_pressure;BME280_temperature;BME280_humidity;BME280_pressure;Samples;Min_cycle;Max_cycle;Signal;HPM_P1;HPM_P2
2022/08/30 00:02:59;;;;;;;3.28;3.08;;;21.70;99.90;;;;;;5093550;28;20030;-70
2022/08/30 00:05:27;;;;;;;3.50;3.20;;;21.60;99.90;;;;;;5090930;28;20048;-71
2022/08/30 00:07:53;;;;;;;2.90;2.70;;;21.60;99.90;;;;;;5093123;28;20035;-69
2022/08/30 00:10:19;;;;;;;5.95;5.20;;;21.50;99.90;;;;;;5093079;28;20024;-68
2022/08/30 00:12:45;;;;;;;3.92;3.63;;;21.50;99.90;;;;;;5075302;28;20451;-68
2022/08/30 00:15:12;;;;;;;4.85;4.40;;;21.40;99.90;;;;;;5093658;28;20051;-67
2022/08/30 00:17:38;;;;;;;4.57;4.18;;;21.30;99.90;;;;;;5075238;28;20107;-69
2022/08/30 00:20:08;;;;;;;5.22;4.68;;;21.20;99.90;;;;;;5093195;28;20071;-68
2022/08/30 00:22:34;;;;;;;4.38;4.00;;;21.20;99.90;;;;;;5075204;28;20020;-68
2022/08/30 00:25:00;;;;;;;3.95;3.65;;;21.30;99.90;;;;;;5075100;28;20386;-70
2022/08/30 00:27:27;;;;;;;4.28;3.97;;;21.30;99.90;;;;;;5074985;28;20474;-67
2022/08/30 00:29:53;;;;;;;3.38;3.17;;;21.30;99.90;;;;;;5075001;28;20024;-68
2022/08/30 00:32:20;;;;;;;3.42;3.13;;;21.40;99.90;;;;;;5093241;28;20055;-70
2022/08/30 00:34:47;;;;;;;2.90;2.70;;;21.40;99.90;;;;;;5093117;28;20052;-71
2022/08/30 00:37:13;;;;;;;3.22;3.03;;;21.40;99.90;;;;;;5092779;28;20390;-71
2022/08/30 00:39:39;;;;;;;3.20;3.00;;;21.40;99.90;;;;;;5093210;28;20031;-71
2022/08/30 00:42:06;;;;;;;4.13;3.83;;;21.40;99.90;;;;;;5074962;28;20111;-68
2022/08/30 00:44:32;;;;;;;3.75;3.45;;;21.40;99.90;;;;;;5093026;28;20386;-68
2022/08/30 00:46:57;;;;;;;3.50;3.20;;;21.30;99.90;;;;;;5074703;28;20024;-69
2022/08/30 00:49:24;;;;;;;3.70;3.30;;;21.30;99.90;;;;;;5074896;28;20028;-68
2022/08/30 00:51:50;;;;;;;3.00;2.80;;;21.30;99.90;;;;;;5074718;28;20056;-69
2022/08/30 00:54:17;;;;;;;3.92;3.63;;;21.30;99.90;;;;;;5095980;28;20111;-71
2022/08/30 00:56:43;;;;;;;4.40;3.63;;;21.20;99.90;;;;;;5078648;28;20031;-70
2022/08/30 00:59:10;;;;;;;3.63;3.33;;;21.20;99.90;;;;;;5078822;28;20115;-71
2022/08/30 01:01:36;;;;;;;3.40;3.10;;;21.20;99.90;;;;;;5070583;28;20027;-69
2022/08/30 01:04:04;;;;;;;3.40;3.20;;;21.30;99.90;;;;;;5096649;28;20047;-69
2022/08/30 01:06:32;;;;;;;3.10;2.90;;;21.30;99.90;;;;;;5077964;28;20051;-68
2022/08/30 01:09:00;;;;;;;3.50;3.20;;;21.30;99.90;;;;;;5096635;28;20020;-68
2022/08/30 01:11:26;;;;;;;2.78;2.58;;;21.40;99.90;;;;;;5078295;28;20024;-70
2022/08/30 01:13:53;;;;;;;3.15;2.75;;;21.40;99.90;;;;;;5078289;28;20020;-69
2022/08/30 01:16:20;;;;;;;3.10;2.90;;;21.40;99.90;;;;;;5078248;28;20073;-67
2022/08/30 01:18:47;;;;;;;3.17;2.92;;;21.40;99.90;;;;;;5096313;28;20028;-69
2022/08/30 01:21:15;;;;;;;3.30;3.10;;;21.40;99.90;;;;;;5077926;28;20099;-72
2022/08/30 01:23:42;;;;;;;3.17;2.92;;;21.30;99.90;;;;;;5096225;28;20050;-70
2022/08/30 01:26:09;;;;;;;3.00;2.80;;;21.40;99.90;;;;;;5096060;28;20024;-70
2022/08/30 01:28:35;;;;;;;3.28;3.03;;;21.30;99.90;;;;;;5096142;28;20073;-67
2022/08/30 01:31:01;;;;;;;3.45;3.20;;;21.30;99.90;;;;;;5078006;28;20024;-71
2022/08/30 01:33:27;;;;;;;2.97;2.78;;;21.30;99.90;;;;;;5077937;28;20020;-67
2022/08/30 01:35:55;;;;;;;3.15;2.92;;;21.30;99.90;;;;;;5095777;28;20035;-67
2022/08/30 01:38:25;;;;;;;2.78;2.58;;;21.30;99.90;;;;;;5095933;28;20050;-69
2022/08/30 01:41:00;;;;;;;3.22;3.00;;;21.40;99.90;;;;;;5077737;28;20020;-69
2022/08/30 01:43:27;;;;;;;2.33;2.22;;;21.30;99.90;;;;;;5077617;28;20024;-70
2022/08/30 01:45:52;;;;;;;2.58;2.38;;;21.30;99.90;;;;;;5095920;28;20124;-71
2022/08/30 01:48:19;;;;;;;2.30;2.20;;;21.30;99.90;;;;;;5095767;28;20355;-71
2022/08/30 01:50:47;;;;;;;2.90;2.65;;;21.40;99.90;;;;;;5095483;28;20027;-69
2022/08/30 01:53:12;;;;;;;3.20;2.70;;;21.40;99.90;;;;;;5095773;28;20527;-71
2022/08/30 01:55:39;;;;;;;3.80;2.92;;;21.50;99.90;;;;;;5095765;28;20024;-67
2022/08/30 01:58:04;;;;;;;3.03;2.45;;;21.40;99.90;;;;;;5095579;28;20016;-71
2022/08/30 02:00:31;;;;;;;3.15;2.95;;;21.40;99.90;;;;;;5077399;28;20024;-68
2022/08/30 02:02:56;;;;;;;3.15;2.85;;;21.40;99.90;;;;;;5095492;28;20359;-69
2022/08/30 02:05:23;;;;;;;3.60;3.40;;;21.40;99.90;;;;;;5076831;28;20027;-67
2022/08/30 02:07:48;;;;;;;4.13;3.72;;;21.40;99.90;;;;;;5077266;28;20093;-69
2022/08/30 02:10:14;;;;;;;4.15;3.85;;;21.40;99.90;;;;;;5095430;28;20024;-70
2022/08/30 02:12:40;;;;;;;5.53;5.03;;;21.40;99.90;;;;;;5095345;28;20072;-69
2022/08/30 02:15:07;;;;;;;4.93;4.53;;;21.40;99.90;;;;;;5095180;28;20016;-69
2022/08/30 02:17:33;;;;;;;5.22;4.80;;;21.30;99.90;;;;;;5095205;28;20028;-67
2022/08/30 02:19:58;;;;;;;5.05;4.55;;;21.30;99.90;;;;;;5076942;28;20489;-70
2022/08/30 02:22:24;;;;;;;4.65;4.25;;;21.30;99.90;;;;;;5095053;28;20522;-68
2022/08/30 02:24:50;;;;;;;6.70;6.15;;;21.30;99.90;;;;;;5077020;28;20051;-71
2022/08/30 02:27:16;;;;;;;5.57;5.15;;;21.30;99.90;;;;;;5076884;28;20039;-71
2022/08/30 02:29:41;;;;;;;6.45;5.38;;;21.10;99.90;;;;;;5094962;28;20020;-68
2022/08/30 02:32:07;;;;;;;7.25;6.63;;;21.00;99.90;;;;;;5076886;28;20078;-67
2022/08/30 02:34:34;;;;;;;5.72;5.20;;;20.90;99.90;;;;;;5076650;28;20440;-71
2022/08/30 02:37:00;;;;;;;7.53;6.82;;;20.90;99.90;;;;;;5076723;28;20028;-68
2022/08/30 02:39:26;;;;;;;5.55;5.05;;;20.80;99.90;;;;;;5076643;28;20074;-69
2022/08/30 02:41:51;;;;;;;6.00;5.50;;;20.80;99.90;;;;;;5094822;28;20108;-71
2022/08/30 02:44:17;;;;;;;5.63;5.22;;;20.70;99.90;;;;;;5076600;28;20027;-69
2022/08/30 02:46:44;;;;;;;5.47;4.97;;;20.70;99.90;;;;;;5094600;28;20039;-69
2022/08/30 02:49:09;;;;;;;4.57;4.28;;;20.80;99.90;;;;;;5076305;28;20118;-69
2022/08/30 02:51:35;;;;;;;4.80;4.07;;;20.80;99.90;;;;;;5094468;28;20099;-71
2022/08/30 02:54:01;;;;;;;4.93;4.32;;;20.90;99.90;;;;;;5094445;28;20017;-68
2022/08/30 02:56:27;;;;;;;7.28;6.72;;;20.90;99.90;;;;;;5094484;28;20031;-68
2022/08/30 02:58:53;;;;;;;7.60;6.47;;;20.80;99.90;;;;;;5094542;28;20020;-70
2022/08/30 03:01:19;;;;;;;4.65;4.25;;;20.80;99.90;;;;;;5075934;28;20390;-69
2022/08/30 03:03:45;;;;;;;5.63;4.75;;;20.80;99.90;;;;;;5094489;28;20028;-68
2022/08/30 03:06:12;;;;;;;5.18;4.78;;;20.80;99.90;;;;;;5094285;28;20032;-68
2022/08/30 03:08:38;;;;;;;4.95;4.55;;;20.80;99.90;;;;;;5094141;28;20023;-69
2022/08/30 03:11:04;;;;;;;4.18;3.88;;;20.90;99.90;;;;;;5075778;28;20111;-72
2022/08/30 03:13:30;;;;;;;4.30;4.00;;;20.90;99.90;;;;;;5094098;28;20496;-69
2022/08/30 03:15:56;;;;;;;4.25;3.85;;;20.90;99.90;;;;;;5075238;28;20047;-71
2022/08/30 03:18:23;;;;;;;3.30;3.10;;;21.00;99.90;;;;;;5094597;28;20023;-70
2022/08/30 03:20:49;;;;;;;3.42;3.10;;;21.00;99.90;;;;;;5075922;28;20024;-68
2022/08/30 03:23:16;;;;;;;3.63;3.10;;;21.10;99.90;;;;;;5075810;28;20028;-71
2022/08/30 03:25:42;;;;;;;3.00;2.72;;;21.10;99.90;;;;;;5093915;28;20024;-70
2022/08/30 03:28:08;;;;;;;2.42;2.25;;;21.10;99.90;;;;;;5075689;28;20047;-68
2022/08/30 03:30:34;;;;;;;2.80;2.60;;;21.10;99.90;;;;;;5075972;28;20024;-70
2022/08/30 03:33:00;;;;;;;2.85;2.65;;;21.10;99.90;;;;;;5075591;28;20458;-71
2022/08/30 03:35:27;;;;;;;2.58;2.38;;;21.00;99.90;;;;;;5093776;28;20078;-68
2022/08/30 03:37:52;;;;;;;2.70;2.50;;;21.10;99.90;;;;;;5093718;28;20024;-69
2022/08/30 03:40:20;;;;;;;2.78;2.58;;;21.10;99.90;;;;;;5075186;28;20031;-68
2022/08/30 03:42:46;;;;;;;3.08;2.88;;;21.10;99.90;;;;;;5075573;28;20016;-70
2022/08/30 03:45:14;;;;;;;3.15;2.95;;;21.10;99.90;;;;;;5093526;28;20023;-69
2022/08/30 03:47:40;;;;;;;2.50;2.40;;;21.10;99.90;;;;;;5075387;28;20036;-70
2022/08/30 03:50:06;;;;;;;3.45;3.15;;;21.10;99.90;;;;;;5093602;28;20024;-68
2022/08/30 03:52:32;;;;;;;4.40;4.00;;;21.00;99.90;;;;;;5093678;28;20418;-72
2022/08/30 03:54:59;;;;;;;3.60;3.15;;;21.00;99.90;;;;;;5075377;28;20162;-68
2022/08/30 03:57:25;;;;;;;2.97;2.78;;;21.00;99.90;;;;;;5093992;28;20094;-68
2022/08/30 03:59:51;;;;;;;3.45;3.15;;;21.00;99.90;;;;;;5093321;28;20042;-69
2022/08/30 04:02:16;;;;;;;3.58;3.28;;;20.90;99.90;;;;;;5075306;28;20093;-70
2022/08/30 04:04:42;;;;;;;3.42;3.22;;;20.90;99.90;;;;;;5075400;28;20020;-70
2022/08/30 04:07:08;;;;;;;3.60;3.30;;;20.90;99.90;;;;;;5093084;28;20486;-68
2022/08/30 04:09:34;;;;;;;3.58;3.10;;;20.90;99.90;;;;;;5075162;28;20031;-70
2022/08/30 04:11:59;;;;;;;3.30;3.03;;;20.90;99.90;;;;;;5093403;28;20027;-69
2022/08/30 04:14:25;;;;;;;2.80;2.60;;;20.90;99.90;;;;;;5093244;28;20024;-69
2022/08/30 04:16:51;;;;;;;3.50;3.20;;;20.90;99.90;;;;;;5075169;28;20032;-71
2022/08/30 04:19:17;;;;;;;3.15;2.95;;;20.90;99.90;;;;;;5093310;28;20020;-70
2022/08/30 04:21:43;;;;;;;3.30;3.05;;;20.90;99.90;;;;;;5075112;28;20485;-68
2022/08/30 04:24:10;;;;;;;3.42;3.13;;;20.80;99.90;;;;;;5093221;28;20044;-68
2022/08/30 04:26:36;;;;;;;3.28;2.97;;;20.80;99.90;;;;;;5093077;28;20028;-71
2022/08/30 04:29:02;;;;;;;3.20;3.00;;;20.80;99.90;;;;;;5096280;28;20082;-69
2022/08/30 04:31:28;;;;;;;7.18;5.40;;;20.90;99.90;;;;;;5079096;28;20034;-68
2022/08/30 04:33:53;;;;;;;4.28;3.75;;;20.80;99.90;;;;;;5078907;28;20126;-69
2022/08/30 04:36:19;;;;;;;3.88;3.58;;;20.70;99.90;;;;;;5079637;28;20028;-69
2022/08/30 04:38:45;;;;;;;2.95;2.75;;;20.80;99.90;;;;;;5097181;28;20481;-70
2022/08/30 04:41:15;;;;;;;3.20;2.95;;;20.70;99.90;;;;;;5078893;28;20398;-69
2022/08/30 04:43:41;;;;;;;5.20;4.80;;;20.80;99.90;;;;;;5078744;28;20491;-70
2022/08/30 04:46:08;;;;;;;6.07;5.57;;;20.80;99.90;;;;;;5078445;28;20496;-70
2022/08/30 04:48:36;;;;;;;4.90;4.50;;;20.70;99.90;;;;;;5078639;28;20508;-69
2022/08/30 04:51:07;;;;;;;4.47;4.07;;;20.60;99.90;;;;;;5078390;28;20016;-69
2022/08/30 04:53:34;;;;;;;5.43;4.65;;;20.70;99.90;;;;;;5096860;28;20016;-69
2022/08/30 04:55:59;;;;;;;5.57;4.13;;;20.70;99.90;;;;;;5096702;28;20073;-69
2022/08/30 04:58:25;;;;;;;5.22;4.72;;;20.70;99.90;;;;;;5077878;28;20111;-65
2022/08/30 05:00:51;;;;;;;4.65;3.95;;;20.80;99.90;;;;;;5096101;28;20020;-67
2022/08/30 05:03:17;;;;;;;4.30;3.92;;;20.80;99.90;;;;;;5095494;28;20500;-65
2022/08/30 05:05:50;;;;;;;4.35;3.95;;;20.80;99.90;;;;;;5096032;28;20044;-67
2022/08/30 05:08:19;;;;;;;3.45;3.25;;;20.90;99.90;;;;;;5096631;28;20016;-65
2022/08/30 05:10:47;;;;;;;4.28;3.55;;;21.00;99.90;;;;;;5078213;28;20031;-65
2022/08/30 05:13:15;;;;;;;3.97;3.42;;;21.00;99.90;;;;;;5078020;28;20024;-65
2022/08/30 05:15:41;;;;;;;3.20;3.00;;;21.10;99.90;;;;;;5096179;28;20020;-64
2022/08/30 05:18:08;;;;;;;3.42;3.13;;;21.10;99.90;;;;;;5094423;28;20024;-65
2022/08/30 05:20:36;;;;;;;3.05;2.85;;;21.20;99.90;;;;;;5094959;28;20024;-66
2022/08/30 05:23:02;;;;;;;3.00;2.80;;;21.30;99.90;;;;;;5093664;28;20035;-65
2022/08/30 05:25:32;;;;;;;3.25;3.05;;;21.40;99.90;;;;;;5068469;28;20023;-66
2022/08/30 05:27:58;;;;;;;3.65;3.35;;;21.50;99.90;;;;;;5054164;28;20103;-67
2022/08/30 05:30:26;;;;;;;3.85;3.45;;;21.50;99.90;;;;;;5054308;28;20383;-65
2022/08/30 05:32:53;;;;;;;5.60;4.40;;;21.70;99.90;;;;;;5054230;28;20406;-66
2022/08/30 05:35:19;;;;;;;3.78;3.47;;;21.80;99.90;;;;;;5056903;28;20451;-65
2022/08/30 05:37:46;;;;;;;3.30;3.00;;;21.80;99.90;;;;;;5071868;28;20047;-65
2022/08/30 05:40:16;;;;;;;3.72;3.53;;;21.90;99.90;;;;;;5053995;28;20059;-65
2022/08/30 05:42:42;;;;;;;3.67;3.40;;;22.00;99.90;;;;;;5072380;28;20059;-65
2022/08/30 05:45:09;;;;;;;4.75;3.63;;;22.20;99.90;;;;;;5080707;28;20117;-65
2022/08/30 05:47:35;;;;;;;4.30;4.00;;;22.30;99.90;;;;;;5091745;28;20462;-65
2022/08/30 05:50:01;;;;;;;4.63;4.18;;;22.30;99.90;;;;;;5091377;28;20047;-66
2022/08/30 05:52:27;;;;;;;4.45;4.15;;;22.40;99.90;;;;;;5091965;28;20013;-74
2022/08/30 05:54:57;;;;;;;3.83;3.53;;;22.40;99.90;;;;;;5094148;28;20103;-67
2022/08/30 05:57:24;;;;;;;5.03;3.65;;;22.40;99.90;;;;;;5093467;28;20132;-65
2022/08/30 05:59:50;;;;;;;3.97;3.55;;;22.40;99.90;;;;;;5093455;28;20032;-65
2022/08/30 06:02:16;;;;;;;4.45;4.00;;;22.40;99.90;;;;;;5090705;28;20493;-73
2022/08/30 06:04:42;;;;;;;3.88;3.58;;;22.40;99.90;;;;;;5076562;28;20107;-66
2022/08/30 06:07:07;;;;;;;4.10;3.78;;;22.40;99.90;;;;;;5095045;28;20048;-67
2022/08/30 06:09:33;;;;;;;3.90;3.60;;;22.40;99.90;;;;;;5085043;28;20032;-66
2022/08/30 06:11:59;;;;;;;4.40;4.00;;;22.40;99.90;;;;;;5094060;28;20028;-68
2022/08/30 06:14:24;;;;;;;3.42;3.22;;;22.60;99.90;;;;;;5095236;28;20017;-67
2022/08/30 06:16:50;;;;;;;4.60;4.15;;;22.60;99.90;;;;;;5082330;28;20079;-68
2022/08/30 06:19:17;;;;;;;4.68;4.38;;;22.70;99.90;;;;;;5074262;28;20086;-66
2022/08/30 06:21:46;;;;;;;4.30;4.00;;;22.80;99.90;;;;;;5079721;28;20142;-67
2022/08/30 06:24:13;;;;;;;3.63;3.33;;;23.00;99.90;;;;;;5088173;28;20027;-67
2022/08/30 06:26:41;;;;;;;4.85;4.45;;;23.50;99.90;;;;;;5092997;28;20410;-66
2022/08/30 06:29:14;;;;;;;5.15;4.65;;;23.90;99.90;;;;;;5115318;28;20024;-64
2022/08/30 06:31:41;;;;;;;6.78;5.85;;;24.10;99.90;;;;;;5092860;28;20024;-67
2022/08/30 06:34:07;;;;;;;4.63;4.22;;;24.60;99.90;;;;;;5076331;28;20091;-66
2022/08/30 06:36:33;;;;;;;5.13;4.72;;;24.60;99.90;;;;;;5076799;28;20059;-63
2022/08/30 06:38:59;;;;;;;5.93;5.32;;;24.40;99.90;;;;;;5073898;28;20128;-66
2022/08/30 06:41:30;;;;;;;6.43;5.65;;;24.20;99.90;;;;;;5094382;28;20051;-66
2022/08/30 06:43:57;;;;;;;5.95;5.43;;;24.10;99.90;;;;;;5075393;28;20103;-67
2022/08/30 06:46:31;;;;;;;5.63;5.13;;;24.00;99.90;;;;;;5093274;28;20042;-67
2022/08/30 06:48:57;;;;;;;;;;;24.00;99.90;;;;;;5092140;28;20028;-65
2022/08/30 06:51:28;;;;;;;9.57;8.05;;;23.90;99.90;;;;;;5079908;28;19912;-67
2022/08/30 06:53:55;;;;;;;8.05;7.22;;;24.00;99.90;;;;;;5069333;28;20029;-66
2022/08/30 06:56:21;;;;;;;7.75;6.68;;;24.00;99.90;;;;;;5073025;28;20424;-66
2022/08/30 06:58:47;;;;;;;7.95;6.85;;;24.20;99.90;;;;;;5068617;28;20062;-66
2022/08/30 07:01:19;;;;;;;7.60;6.63;;;24.60;99.90;;;;;;5075491;28;20427;-66
2022/08/30 07:03:45;;;;;;;6.68;5.70;;;25.40;99.90;;;;;;5069941;28;20355;-67
2022/08/30 07:06:12;;;;;;;7.15;6.28;;;25.80;99.90;;;;;;5090742;28;20339;-68
2022/08/30 07:08:38;;;;;;;9.43;8.40;;;27.30;99.90;;;;;;5109003;28;20038;-66
2022/08/30 07:11:06;;;;;;;8.27;7.40;;;28.50;99.90;;;;;;5109895;28;20102;-67
2022/08/30 07:13:32;;;;;;;8.20;7.35;;;29.80;99.20;;;;;;5111098;28;20016;-66
2022/08/30 07:15:58;;;;;;;8.13;6.75;;;31.00;96.60;;;;;;5111681;28;20024;-66
2022/08/30 07:21:14;;;;;;;7.20;6.43;;;33.10;91.20;;;;;;5111152;28;20066;-67
2022/08/30 07:23:42;;;;;;;9.63;7.60;;;32.20;85.60;;;;;;5110278;28;20106;-69
2022/08/30 07:26:10;;;;;;;10.40;7.72;;;30.90;88.80;;;;;;5092718;28;20457;-68
2022/08/30 07:28:38;;;;;;;9.73;7.15;;;29.70;91.30;;;;;;5092497;28;20023;-68
2022/08/30 07:31:04;;;;;;;9.40;8.07;;;30.60;92.80;;;;;;5110986;28;20024;-68
2022/08/30 07:33:31;;;;;;;10.48;7.63;;;30.00;92.80;;;;;;5113303;28;20072;-67
2022/08/30 07:35:58;;;;;;;11.55;8.15;;;29.20;92.90;;;;;;5111654;28;20064;-67
2022/08/30 07:38:24;;;;;;;18.67;11.65;;;30.00;93.20;;;;;;5111794;28;20023;-68
2022/08/30 07:40:50;;;;;;;14.70;10.80;;;31.50;90.20;;;;;;5096222;28;20063;-66
2022/08/30 07:43:15;;;;;;;10.73;9.30;;;31.80;86.60;;;;;;5090896;28;20059;-68
2022/08/30 07:45:41;;;;;;;10.80;9.05;;;30.30;90.70;;;;;;5091217;28;20412;-67
2022/08/30 07:48:10;;;;;;;11.15;9.50;;;29.70;91.20;;;;;;5092457;28;20155;-68
2022/08/30 07:50:37;;;;;;;14.18;11.13;;;28.70;92.10;;;;;;5094324;28;20500;-68
2022/08/30 07:53:03;;;;;;;10.52;8.93;;;27.90;93.10;;;;;;5076941;28;20035;-67
2022/08/30 07:55:29;;;;;;;10.23;7.95;;;27.80;95.40;;;;;;5092173;28;20029;-65
2022/08/30 07:57:55;;;;;;;8.25;7.38;;;27.50;96.30;;;;;;5071638;28;20031;-67
2022/08/30 08:00:20;;;;;;;14.93;11.45;;;27.30;97.20;;;;;;5070437;28;20135;-68
2022/08/30 08:02:46;;;;;;;12.00;10.70;;;26.90;98.20;;;;;;5069528;28;20031;-68
2022/08/30 08:05:13;;;;;;;11.20;9.38;;;26.60;99.90;;;;;;5065806;28;20101;-66
2022/08/30 08:07:39;;;;;;;19.10;12.45;;;26.50;99.90;;;;;;5089443;28;20044;-68
2022/08/30 08:10:05;;;;;;;17.05;10.80;;;26.40;99.90;;;;;;5087968;28;20047;-66
2022/08/30 08:12:31;;;;;;;13.70;9.63;;;26.30;99.90;;;;;;5090718;28;20048;-69
2022/08/30 08:14:57;;;;;;;12.27;8.77;;;26.30;99.90;;;;;;5091927;28;20024;-67
2022/08/30 08:17:23;;;;;;;12.30;8.60;;;26.50;99.90;;;;;;5092534;28;20017;-68
2022/08/30 08:19:48;;;;;;;9.77;7.85;;;27.60;99.90;;;;;;5092114;28;20024;-66
2022/08/30 08:22:55;;;;;;;12.75;8.70;;;29.50;98.40;;;;;;5080141;28;20050;-66
2022/08/30 08:25:21;;;;;;;10.18;8.00;;;31.30;95.80;;;;;;5074613;28;20025;-67
2022/08/30 08:27:50;;;;;;;15.15;10.38;;;32.60;92.90;;;;;;5081236;28;20043;-66
2022/08/30 08:30:21;;;;;;;11.25;8.82;;;33.10;91.00;;;;;;5048053;28;20040;-66
2022/08/30 08:32:47;;;;;;;12.35;8.57;;;33.80;87.00;;;;;;5087735;28;20401;-67
2022/08/30 08:35:15;;;;;;;11.88;8.45;;;34.30;83.00;;;;;;5070772;28;20414;-66
2022/08/30 08:37:41;;;;;;;12.05;7.88;;;33.80;81.20;;;;;;5072716;28;20024;-69
2022/08/30 08:40:09;;;;;;;12.55;7.90;;;34.00;80.80;;;;;;5079736;28;20082;-67
2022/08/30 08:42:41;;;;;;;16.90;11.35;;;34.60;81.70;;;;;;5071070;28;20474;-66
2022/08/30 08:45:18;;;;;;;13.60;9.55;;;34.30;77.00;;;;;;5070312;28;20024;-66
2022/08/30 08:47:52;;;;;;;9.95;8.18;;;34.00;78.40;;;;;;5065989;28;20044;-67
2022/08/30 08:50:19;;;;;;;14.48;9.43;;;34.20;77.60;;;;;;5087507;28;20431;-67
2022/08/30 08:55:52;;;;;;;7.50;6.55;;;33.10;77.50;;;;;;5075690;28;20445;-67
2022/08/30 08:58:42;;;;;;;11.38;8.45;;;32.80;79.10;;;;;;5076268;28;20416;-67
2022/08/30 09:01:09;;;;;;;11.63;7.63;;;32.80;79.60;;;;;;5110340;28;20065;-67
2022/08/30 09:03:35;;;;;;;10.30;7.78;;;32.80;77.70;;;;;;5089918;28;20066;-71
2022/08/30 09:06:10;;;;;;;9.60;8.05;;;33.30;79.60;;;;;;5072161;28;20079;-66
2022/08/30 09:08:39;;;;;;;9.93;7.63;;;33.40;78.00;;;;;;5074059;28;20640;-68
2022/08/30 09:11:15;;;;;;;9.07;6.93;;;33.70;78.70;;;;;;5092975;28;20066;-67
2022/08/30 09:13:41;;;;;;;11.50;7.60;;;33.90;76.30;;;;;;5090213;28;20024;-66
2022/08/30 09:16:07;;;;;;;9.05;6.82;;;34.30;74.90;;;;;;5095183;28;20034;-68
2022/08/30 09:18:44;;;;;;;8.52;6.63;;;34.40;75.30;;;;;;5093377;28;20511;-66
2022/08/30 09:21:12;;;;;;;8.05;6.93;;;34.60;72.50;;;;;;5091993;28;20520;-66
2022/08/30 09:23:55;;;;;;;6.55;4.97;;;34.60;75.70;;;;;;5101620;28;20027;-70
2022/08/30 09:26:35;;;;;;;5.80;5.20;;;34.60;71.30;;;;;;5110904;28;20020;-67
2022/08/30 09:29:03;;;;;;;6.20;5.32;;;34.50;72.00;;;;;;5113546;28;20540;-65
2022/08/30 09:31:46;;;;;;;7.05;5.65;;;34.60;72.90;;;;;;5113811;28;20034;-64
2022/08/30 09:34:17;;;;;;;9.00;6.43;;;34.80;72.30;;;;;;5074032;28;20016;-65
2022/08/30 09:36:50;;;;;;;7.03;5.70;;;35.30;68.90;;;;;;5074884;28;20020;-65
2022/08/30 09:39:29;;;;;;;8.13;5.70;;;35.40;70.10;;;;;;5074217;28;20025;-65
2022/08/30 09:42:18;;;;;;;5.95;5.22;;;35.40;68.80;;;;;;5075897;28;20074;-64
2022/08/30 09:44:44;;;;;;;8.30;5.55;;;35.70;70.20;;;;;;5080378;28;20032;-65
2022/08/30 09:47:29;;;;;;;6.38;5.78;;;35.90;68.00;;;;;;5111605;28;20104;-64
2022/08/30 09:50:17;;;;;;;7.45;5.82;;;35.60;69.20;;;;;;5108228;28;20038;-66
2022/08/30 09:52:45;;;;;;;10.45;6.35;;;35.70;68.10;;;;;;5115924;28;20051;-64
2022/08/30 09:55:28;;;;;;;9.20;7.10;;;35.40;67.00;;;;;;5116012;28;20419;-64
2022/08/30 09:58:05;;;;;;;8.85;6.78;;;34.60;68.00;;;;;;5081869;28;20108;-66
2022/08/30 10:00:38;;;;;;;6.70;6.05;;;34.10;69.90;;;;;;5080344;28;20020;-65
2022/08/30 10:03:15;;;;;;;7.25;6.15;;;34.50;68.40;;;;;;5090803;28;20034;-63
2022/08/30 10:05:43;;;;;;;7.88;6.40;;;35.10;68.90;;;;;;5075729;28;20051;-65
2022/08/30 10:08:18;;;;;;;6.70;6.05;;;35.40;66.60;;;;;;5091408;28;20111;-65
2022/08/30 10:10:55;;;;;;;6.60;5.90;;;35.20;66.50;;;;;;5091799;28;20390;-66
2022/08/30 10:13:40;;;;;;;6.50;5.90;;;35.30;69.20;;;;;;5077442;28;20549;-66
2022/08/30 10:16:34;;;;;;;8.52;6.95;;;35.40;69.10;;;;;;5081034;28;20420;-66
2022/08/30 10:19:30;;;;;;;11.95;9.10;;;35.70;67.90;;;;;;5071695;28;20053;-67
2022/08/30 10:22:08;;;;;;;8.68;7.60;;;35.60;64.90;;;;;;5072839;28;20024;-67
2022/08/30 10:24:49;;;;;;;7.65;6.88;;;35.00;65.20;;;;;;5081773;28;20055;-66
2022/08/30 10:27:35;;;;;;;8.10;6.78;;;35.30;67.30;;;;;;5114398;28;20023;-66
2022/08/30 10:30:12;;;;;;;9.15;7.40;;;35.00;65.50;;;;;;5114487;28;20034;-67
2022/08/30 10:32:57;;;;;;;7.93;6.00;;;34.00;67.20;;;;;;5114996;28;20019;-66
2022/08/30 10:35:28;;;;;;;7.82;6.25;;;33.60;67.80;;;;;;5115413;28;20378;-69
2022/08/30 10:38:12;;;;;;;6.63;5.97;;;33.30;70.90;;;;;;5097136;28;20041;-65
2022/08/30 10:43:48;;;;;;;6.32;5.72;;;32.60;73.90;;;;;;5111263;28;20026;-63
2022/08/30 10:46:36;;;;;;;5.65;5.00;;;32.20;76.40;;;;;;5094069;28;20035;-64
2022/08/30 10:49:07;;;;;;;5.47;4.97;;;32.00;75.30;;;;;;5094873;28;20035;-64
2022/08/30 10:51:45;;;;;;;4.28;3.97;;;31.80;77.50;;;;;;5094651;28;20665;-63
2022/08/30 10:54:24;;;;;;;3.70;3.40;;;31.60;74.50;;;;;;5094699;28;20024;-63
2022/08/30 10:56:51;;;;;;;4.00;3.60;;;31.60;77.70;;;;;;5094771;28;20103;-64
2022/08/30 10:59:18;;;;;;;4.78;4.38;;;31.40;80.70;;;;;;5089744;28;20381;-63
2022/08/30 11:02:08;;;;;;;5.20;4.43;;;30.90;83.10;;;;;;5089902;28;20020;-65
2022/08/30 11:04:49;;;;;;;6.00;5.50;;;30.30;87.80;;;;;;5076473;28;20035;-67
2022/08/30 11:07:35;;;;;;;6.90;6.22;;;29.70;91.70;;;;;;5092529;28;20093;-65
2022/08/30 11:10:20;;;;;;;7.97;6.93;;;29.00;95.00;;;;;;5087112;28;20020;-60
2022/08/30 11:13:06;;;;;;;6.88;5.43;;;28.60;98.20;;;;;;5080455;28;20110;-54
2022/08/30 11:15:57;;;;;;;5.43;5.03;;;28.50;99.80;;;;;;5093077;28;20084;-54
2022/08/30 11:18:24;;;;;;;6.47;4.57;;;28.60;99.90;;;;;;5085056;28;20038;-52
2022/08/30 11:20:53;;;;;;;6.70;5.00;;;28.80;96.40;;;;;;5096817;28;20027;-53
2022/08/30 11:23:35;;;;;;;8.38;5.10;;;29.00;94.90;;;;;;5097334;28;20355;-58
2022/08/30 11:26:07;;;;;;;5.90;5.35;;;28.90;94.60;;;;;;5089525;28;20032;-56
2022/08/30 11:28:36;;;;;;;6.82;6.13;;;28.90;94.20;;;;;;5083460;28;20486;-54
2022/08/30 11:31:17;;;;;;;7.63;5.68;;;28.60;94.10;;;;;;5076315;28;20020;-59
2022/08/30 11:33:47;;;;;;;5.50;5.00;;;28.70;94.70;;;;;;5069635;28;20056;-56
2022/08/30 11:36:40;;;;;;;6.35;5.70;;;28.90;95.60;;;;;;5076999;28;20090;-56
2022/08/30 11:39:09;;;;;;;6.43;5.10;;;28.70;95.60;;;;;;5072299;28;20033;-58
2022/08/30 11:41:46;;;;;;;4.90;4.28;;;28.60;95.60;;;;;;5081007;28;20028;-59
2022/08/30 11:44:20;;;;;;;5.93;5.35;;;28.50;95.70;;;;;;5076180;28;20375;-57
2022/08/30 11:47:13;;;;;;;4.90;4.50;;;28.30;97.00;;;;;;5076558;28;20043;-59
2022/08/30 11:50:01;;;;;;;3.97;3.58;;;28.10;97.40;;;;;;5037258;28;20592;-57
2022/08/30 11:52:46;;;;;;;3.90;3.50;;;28.00;98.30;;;;;;5074315;28;20036;-58
2022/08/30 11:55:18;;;;;;;6.38;4.15;;;28.00;98.70;;;;;;5073169;28;20032;-58
2022/08/30 11:57:51;;;;;;;4.33;3.73;;;28.00;98.70;;;;;;5080854;28;20389;-57
2022/08/30 12:00:32;;;;;;;3.63;3.33;;;28.10;99.50;;;;;;5093122;28;20020;-58
2022/08/30 12:03:04;;;;;;;3.50;3.20;;;28.50;99.90;;;;;;5086941;28;20711;-57
2022/08/30 12:05:45;;;;;;;;;;;28.80;99.20;;;;;;5092602;28;20043;-59
2022/08/30 12:08:19;;;;;;;3.65;3.35;;;29.30;98.40;;;;;;5083586;28;19938;-59
2022/08/30 12:10:58;;;;;;;3.28;3.08;;;29.90;98.50;;;;;;5091177;28;20020;-58
2022/08/30 12:13:36;;;;;;;4.30;3.90;;;30.40;95.70;;;;;;5088624;28;20386;-57
2022/08/30 12:16:10;;;;;;;4.40;4.00;;;30.90;95.80;;;;;;5089055;28;20399;-55
2022/08/30 12:18:46;;;;;;;4.47;4.07;;;31.20;93.80;;;;;;5072830;28;20032;-57
2022/08/30 12:21:20;;;;;;;5.60;4.25;;;31.20;93.60;;;;;;5073000;28;20023;-59
2022/08/30 12:24:19;;;;;;;4.13;3.83;;;31.00;91.50;;;;;;5072766;28;20054;-58
2022/08/30 12:26:48;;;;;;;3.97;3.58;;;30.90;91.70;;;;;;5072698;28;20112;-57
2022/08/30 12:29:22;;;;;;;3.83;3.53;;;30.90;91.40;;;;;;5072639;28;20056;-57
2022/08/30 12:32:01;;;;;;;3.72;3.42;;;31.00;91.80;;;;;;5073064;28;20082;-57
2022/08/30 12:34:32;;;;;;;3.10;2.90;;;30.90;91.70;;;;;;5072885;28;20052;-59
2022/08/30 12:37:20;;;;;;;5.18;3.53;;;30.80;92.00;;;;;;5072841;28;20025;-58
2022/08/30 12:39:46;;;;;;;3.30;3.00;;;30.70;92.10;;;;;;5065955;28;20020;-57
2022/08/30 12:42:17;;;;;;;4.05;3.65;;;30.60;91.90;;;;;;5072695;28;20074;-57
2022/08/30 12:44:44;;;;;;;3.35;3.15;;;30.60;91.90;;;;;;5072919;28;20017;-59
2022/08/30 12:47:12;;;;;;;3.30;3.00;;;30.50;92.20;;;;;;5072823;28;20082;-58
2022/08/30 12:49:40;;;;;;;3.20;2.90;;;30.30;92.20;;;;;;5067139;28;20024;-55
2022/08/30 12:52:39;;;;;;;3.55;3.25;;;30.30;93.50;;;;;;5076903;28;20469;-57
2022/08/30 12:55:23;;;;;;;3.75;3.45;;;30.10;93.00;;;;;;5065106;28;20035;-57
2022/08/30 12:58:04;;;;;;;3.20;2.90;;;30.00;93.90;;;;;;5076329;28;20095;-56
2022/08/30 13:00:41;;;;;;;3.20;3.00;;;30.00;93.30;;;;;;5075826;28;20024;-56
2022/08/30 13:03:22;;;;;;;3.42;3.13;;;30.10;93.30;;;;;;5075792;28;20017;-55
2022/08/30 13:05:50;;;;;;;4.13;3.30;;;30.20;93.90;;;;;;5076245;28;20044;-55
2022/08/30 13:08:35;;;;;;;3.05;2.85;;;30.10;93.30;;;;;;5076572;28;20036;-59
2022/08/30 13:11:07;;;;;;;3.20;2.90;;;30.00;93.70;;;;;;5076110;28;20074;-59